金龙论坛

 找回密码
 立即注册
收藏本版

动漫卡通下载 今日: 219 |主题: 314|排名: 27 

作者 回复/查看 最后发表
[【欧美动漫】] 里约大冒险/奇鹦嘉年华 Rio 2011 BluRay 720p DTS x264 MgB 3.55GB attach_img heatlevel 水王 2014-4-11 41493 wolove712 2018-7-7 21:05
[【欧美动漫】] 史酷比!格斗狂热迷 Scooby-Doo.WrestleMania.Mystery.2014.720p.BluRay.x264-AN0NYM0US 3.28GB attach_img 水王 2014-4-11 3827 wolove712 2018-7-7 21:04
[【欧美动漫】] 抢劫坚果店/坚果行动 The Nut Job 2014 BluRay 720p DTS x264 MgB 3.55GB attach_img heatlevel 水王 2014-4-10 51183 wolove712 2018-7-7 19:30
[【欧美动漫】] 美食总动员/料理鼠王 Ratatouille 2007 BluRay 720p DTS x264 MgB 3.75GB attach_img 水王 2014-4-10 2923 wolove712 2018-7-7 19:22
[【欧美动漫】] 驯龙骑士/天平与剑[国粤英]Justin.and.the.Knights.of.Valour.2013.720p.BluRay.x264-LongBT 4.37 attach_img heatlevel 水王 2014-4-10 81271 wolove712 2018-7-7 17:15
[【日本动漫】] 船长哈洛克/宇宙海盗船长哈洛克/宇宙海盗夏罗古(港) Space.Pirate.Captain.Harlock.2013.720p.BluRay.x264-Lo attach_img 水王 2014-4-5 1759 wolove712 2018-7-7 17:07
[【欧美动漫】] 抢劫坚果店/坚果行动(台) The.Nut.Job.2014.1080p.BluRay.DTS-HD.MA.5.1.x264-LongBT 6.55 GB attachment 水王 2014-4-4 2706 wolove712 2018-7-7 15:58
[【欧美动漫】] 抢劫坚果店/坚果行动(台) The.Nut.Job.2014.1080p.BluRay.x264-LongBT 4.37 GB attachment 水王 2014-4-4 1611 wolove712 2018-7-7 15:57
[【欧美动漫】] 抢劫坚果店/坚果行动(台) The.Nut.Job.2014.720p.BluRay.x264-LongBT 2.64 GB attach_img heatlevel 水王 2014-4-4 6705 tot55 2018-7-7 12:03
[【欧美动漫】] 桌面足球 Underdogs.aka.Metegol.2013.1080p.BluRay.DTS.x264-LongBT 6.74GB attachment 水王 2014-4-4 3717 tot55 2018-7-7 12:02
[【欧美动漫】] 抢劫坚果店/坚果行动(台) The.Nut.Job.2014.720p.BluRay.DTS.x264-LongBT 3.33 GB attach_img 水王 2014-4-4 1619 wolove712 2018-7-7 09:49
[【欧美动漫】] 桌面足球 Metegol.2013.720p.BluRay.DTS.x264-LongBT 3.50 GB attach_img 水王 2014-4-4 2865 wolove712 2018-7-7 09:48
[【日本动漫】] 剧场版魔法少女小圆 新篇:叛逆的故事 Puella.Magi.Madoka.Magica.the.Movie.Part.III.Rebellion.2013.7 attachment 水王 2014-3-31 1749 wolove712 2018-7-7 08:24
[【欧美动漫】] 机密复仇者:黑寡妇与惩罚者 2013.720p.BluRay.DTS.x264-LongBT 2.94GB attach_img heatlevel 水王 2014-3-31 51113 wolove712 2018-7-7 08:23
[【欧美动漫】] 精灵高中:惊声尖拍 Monster.High.Frights.Camera.Action.2014.720p.BluRay.x264-NOSCREENS 3.2 attach_img 水王 2014-3-30 41016 wolove712 2018-7-6 23:50
[【欧美动漫】] 机密复仇者:黑寡妇与惩罚者 2014.1080p.BluRay.x264-MELiTE 6.57GB attachment 水王 2014-3-29 41023 wolove712 2018-7-6 23:39
[【欧美动漫】] 机密复仇者:黑寡妇与惩罚者 2014.720p.BluRay.x264-NOSCREENS 3.28GB attachment 水王 2014-3-29 2960 wolove712 2018-7-6 22:30
[【欧美动漫】] 火鸡总动员[国/英].Free.Birds.2013.720p.BluRay.x264-LongBT 3.66GB attach_img digest heatlevel 水王 2014-3-26 161469 wolove712 2018-7-6 22:29
[【欧美动漫】] 艾哈迈德历险记拯救美国 Achmed.Saves.America.2014.720p.BluRay.x264-LongBT 2.19GB attachment 水王 2014-3-22 3892 wolove712 2018-7-6 21:25
[【欧美动漫】] 机密复仇者:黑寡妇与惩罚者 Avengers.Confidential.Black.Widow.And.Punisher.2014.720p.WEB-DL.H2 attachment digest heatlevel  ...2 水王 2014-3-12 342545 wolove712 2018-7-6 21:24
[【欧美动漫】] 天鹅公主:皇室传说.The.Swan.Princess.A.Royal.Family.Tale.2014.720p.BluRay.DTS.x264-LongBT attachment heatlevel  ...2 水王 2014-3-10 372343 wolove712 2018-7-5 22:11
[【欧美动漫】] 天鹅公主:皇室传说 The.Swan.Princess.A.Royal.Family.Tale.2014.720p.BluRay.x264-G3LHD 3.27 attachment heatlevel  ...23 水王 2014-3-5 572453 wolove712 2018-7-5 21:59
[【欧美动漫】] 冰雪奇缘/冰雪大冒险/冰雪皇后/魔雪奇缘(港) Frozen.2013.720p.BluRay.DTS.x264-LongBT 4.37GB attachment digest heatlevel  ...234 水王 2014-3-1 774090 wolove712 2018-7-5 17:04
[【欧美动漫】] 冰雪奇缘/冰雪大冒险/冰雪皇后/白雪皇后/魔雪奇缘(港) Frozen.2013.720p.BluRay.x264-LongBT 3.27GB attachment heatlevel  ...234 水王 2014-3-1 653835 wolove712 2018-7-5 17:03
[【欧美动漫】] 海鲜陆战队/海洋大队 Sea.Level.2011.READNFO.720p.BluRay.x264-SPLiTSViLLE 4.36GB attachment heatlevel  ...2 水王 2014-2-18 311992 wolove712 2018-7-5 15:12
[【欧美动漫】] 【蓝精灵2】[国/粤/英]The Smurfs 2 2013 BluRay 720p 3Audio DTS x264-LongBT... attachment heatlevel 龙の徽 2013-11-29 121130 wolove712 2018-7-5 15:11
[【欧美动漫】] 【拯救圣诞老人】Saving.Santa.2013.720p.BluRay.x264-LongBT 2.64 GB attach_img heatlevel 龙の徽 2013-11-25 6881 wolove712 2018-7-5 14:10
[【欧美动漫】] 【波鲁鲁冰雪大冒险/小企鹅波鲁鲁之冰雪世界赛车冒险记】Pororo.The.Racing.Adventure.2013.720p.BluRay.x264-iFP attach_img 龙の徽 2013-11-16 5955 wolove712 2018-7-5 14:09
[【欧美动漫】] 【蓝精灵2】[国/粤/英]The.Smurfs.2.2013.720p.BluRay.x264.DTS-LongBT 5.80G attach_img heatlevel 龙の徽 2013-11-16 161293 wolove712 2018-7-5 13:09
[【欧美动漫】] 【尼科救亲记/尼科的圣诞历险2】Little.Brother.Big.Trouble.A.Christmas.Adventure.2012.BluRay.720 attach_img heatlevel 龙の徽 2013-11-14 6934 wolove712 2018-7-5 13:08
[【欧美动漫】] 芭比之珍珠公主 Barbie.The.Pearl.Princess.2013.720p.BluRay.x264-LongBT 3.12GB attachment heatlevel  ...2 水王 2014-2-16 352151 wolove712 2018-7-5 11:42
[【欧美动漫】] 【钢铁人与浩克:联合战记】Iron.Man.And.Hulk-Heroes.United.2013.720p.BluRay.DTS.x264-AXED 3.40 attach_img digest heatlevel  ...23 龙の徽 2013-11-29 423304 wolove712 2018-7-5 11:41
[【日本动漫】] 【全职猎人剧场版: 绯色的幻影】【BD-RMVB/872MB】【英语中文字幕】【2013欧美动画片1280高清】 attach_img heatlevel 龙の徽 2013-9-10 101492 tot55 2018-7-3 23:03
[【欧美动漫】] 【太空堡垒:烽火情歌】【DVDRip-MKV/784MB】【英语中文字幕】【2013欧美动画片1024高清】 attach_img heatlevel 龙の徽 2013-9-10 71404 wolove712 2018-7-2 16:51
[【欧美动漫】] 【白猩猩历险记】【DVD-RMVB/396MB】【英语中文字幕】【2013欧美动画片1024版高清】 attach_img heatlevel 龙の徽 2013-9-10 51005 wolove712 2018-7-2 15:13
[【日本动漫】] 【哆啦A梦:大雄的秘密道具博物馆】【BD-RMVB/632.79MB】【日语中文字幕】【2013日本动画片1280高清】 attach_img heatlevel 龙の徽 2013-9-10 131331 wolove712 2018-7-2 15:12
[【日本动漫】] [ONE PIECE 海贼王][剧场12][最强之敌Z][BDRIP][720P][MKV] attach_img heatlevel 水王 2013-8-10 81268 wolove712 2018-7-2 14:05
[【中国动漫】] 【大闹天宫】【BD-mkv/1.76G】【粤语中文简繁字幕】【2012中国动画片720P高清】 attach_img heatlevel 狼队 2013-8-9 151248 wolove712 2018-7-2 14:03
[【欧美动漫】] 【熊麻吉】【BD-RMVB/483.50MB】【英语繁中英字幕】【2012美国动画片高清】 attach_img heatlevel 龙の徽 2013-8-9 41286 wolove712 2018-7-1 22:02
[【欧美动漫】] 【Lifes A Jungle】【DVDRip/700 MiB】【英语无字幕】【2012美国动画片高清】 attach_img 天涯1号 2013-8-9 2684 wolove712 2018-7-1 22:00
[【日本动漫】] 【鸡妈鸭仔】【BD-mkv/1.69G】【韩语国语双音轨中字幕】【2011韩国动画片720高清】 attachment 四川 2013-8-9 4950 wolove712 2018-6-30 23:01
[【日本动漫】] 【尖叫旅社】【龙BT首发】【TS@RMVB】【英语中文字幕】【2013美国动画片TS高清】 attach_img 龙の徽 2013-8-9 3892 wolove712 2018-6-30 21:53
[【欧美动漫】] 【冰川时代4】【BD-mkv/2.29G】【英语国语粤语三音轨中字幕】【2012动画片蓝光720版】 attach_img heatlevel  ...2 龙の徽 2013-8-9 251926 wolove712 2018-6-30 21:52
[【欧美动漫】] 【海底大冒险2:巨浪/大堡礁惊魂记】【HDTV-RMVB/1.29GB】【英语中字幕】【2012美国动画片1080P高清】 attach_img heatlevel 龙の徽 2013-8-9 111867 wolove712 2018-6-30 20:37
[【日本动漫】] [合集][名侦探柯南剧场版1997~2012][全16部][国日双语内挂简繁中字][BD-MKV/15G] heatlevel  ...2 龙の徽 2013-7-20 292464 wolove712 2018-6-30 20:34
[【欧美动漫】] 正义联盟:闪点悖论(制作花絮) Justice.League.The.Flashpoint.Paradox.2013.EXTRAS.ONLY.720p.WEB- attach_img 龙の徽 2013-7-20 31087 wolove712 2018-6-30 15:48
[【欧美动漫】] [2012][欧美][动画][叽哩咕与男人和女人][HR-HDTV+MP4/1.36G+510M][中法双语字幕] attachment 龙の徽 2013-7-18 3961 wolove712 2018-6-30 14:31
[【日本动漫】] 剑风传奇 黄金时代篇3:降临/剑风传奇 黄金时代篇Ⅲ/剑风传奇 黄金时代篇Ⅲ 降临(未审查版) Berserk.The.Golden.Age.Arc.3.Adv attach_img 龙の徽 2013-7-18 5978 wolove712 2018-6-30 14:29
[【日本动漫】] 红猪/飞天红猪侠 [宫崎骏作品] Porco.Rosso.1992.1080p.BluRay.X264-AMIABLE 6.56G attachment 龙の徽 2013-7-18 4808 wolove712 2018-6-30 12:57
[【日本动漫】] 红猪/飞天红猪侠 Porco.Rosso.1992.720p.BluRay.X264-AMIABLE 3.28G attach_img heatlevel 龙の徽 2013-7-17 6954 wolove712 2018-6-30 12:56
下一页 »

快速发帖

还可输入 80 个字符
您需要登录后才可以发帖 登录 | 立即注册

本版积分规则

QQ|小黑屋|手机版|Archiver|金龙论坛   

GMT+8, 2019-1-20 00:30 , Processed in 1.219409 second(s), 15 queries , Gzip On.

返回顶部 返回版块